Time;durP1;ratioP1;P1;durP2;ratioP2;P2;SDS_P1;SDS_P2;PMS_P1;PMS_P2;Temp;Humidity;BMP_temperature;BMP_pressure;BME280_temperature;BME280_humidity;BME280_pressure;Samples;Min_cycle;Max_cycle;Signal;HPM_P1;HPM_P2
2023/09/10 00:02:02;;;;;;;9.90;8.43;;;22.70;99.90;;;;;;4992565;28;20643;-72
2023/09/10 00:04:27;;;;;;;10.53;8.67;;;22.70;99.90;;;;;;4992204;28;20172;-72
2023/09/10 00:06:53;;;;;;;12.37;9.20;;;22.70;99.90;;;;;;4992918;28;20208;-73
2023/09/10 00:09:19;;;;;;;9.30;8.40;;;22.60;99.90;;;;;;4992606;28;20192;-73
2023/09/10 00:11:45;;;;;;;10.10;8.90;;;22.50;99.90;;;;;;4992605;28;20188;-72
2023/09/10 00:14:10;;;;;;;9.63;8.63;;;22.40;99.90;;;;;;4993193;28;20881;-73
2023/09/10 00:16:36;;;;;;;9.60;8.60;;;22.40;99.90;;;;;;4992100;28;20260;-72
2023/09/10 00:19:02;;;;;;;10.70;8.77;;;22.40;99.90;;;;;;4990846;28;20177;-73
2023/09/10 00:21:27;;;;;;;11.50;8.50;;;22.40;99.90;;;;;;4995349;28;20196;-72
2023/09/10 00:23:53;;;;;;;8.90;8.20;;;22.40;99.90;;;;;;4996348;28;20175;-73
2023/09/10 00:26:18;;;;;;;8.30;7.60;;;22.30;99.90;;;;;;4996250;28;20165;-73
2023/09/10 00:28:44;;;;;;;16.13;9.10;;;22.30;99.90;;;;;;4996425;28;20169;-73
2023/09/10 00:31:10;;;;;;;10.00;9.00;;;22.30;99.90;;;;;;4996211;28;20184;-73
2023/09/10 00:33:35;;;;;;;10.87;9.10;;;22.40;99.90;;;;;;4995645;28;20647;-73
2023/09/10 00:36:01;;;;;;;10.23;8.80;;;22.40;99.90;;;;;;4996487;28;20252;-72
2023/09/10 00:38:26;;;;;;;11.43;9.10;;;22.30;99.90;;;;;;4996102;28;20229;-73
2023/09/10 00:40:52;;;;;;;10.17;8.83;;;22.20;99.90;;;;;;4995846;28;20185;-72
2023/09/10 00:43:17;;;;;;;8.97;8.10;;;22.20;99.90;;;;;;4995768;28;20196;-72
2023/09/10 00:45:43;;;;;;;16.87;14.23;;;22.30;99.90;;;;;;4995752;28;20652;-72
2023/09/10 00:48:09;;;;;;;11.13;10.03;;;22.40;99.90;;;;;;4995271;28;20259;-71
2023/09/10 00:50:34;;;;;;;10.63;9.63;;;22.50;99.90;;;;;;4995658;28;20208;-72
2023/09/10 00:53:00;;;;;;;13.33;9.17;;;22.50;99.90;;;;;;4994859;28;20181;-72
2023/09/10 00:55:29;;;;;;;10.00;9.00;;;22.40;99.90;;;;;;4995318;28;20183;-71
2023/09/10 00:57:55;;;;;;;10.43;9.43;;;22.30;99.90;;;;;;4995305;28;20193;-72
2023/09/10 01:00:21;;;;;;;9.13;8.20;;;22.20;99.90;;;;;;4995208;28;20408;-72
2023/09/10 01:02:49;;;;;;;10.57;9.47;;;22.10;99.90;;;;;;4995252;28;20518;-72
2023/09/10 01:05:16;;;;;;;10.43;9.20;;;22.00;99.90;;;;;;4995228;28;20400;-72
2023/09/10 01:07:41;;;;;;;10.93;9.07;;;22.00;99.90;;;;;;4995426;28;20415;-72
2023/09/10 01:10:08;;;;;;;8.90;8.10;;;22.10;99.90;;;;;;4995544;28;20412;-72
2023/09/10 01:12:45;;;;;;;12.07;9.70;;;22.20;99.90;;;;;;4995036;28;20200;-73
2023/09/10 01:15:28;;;;;;;10.40;9.40;;;22.30;99.90;;;;;;4995479;28;20478;-73
2023/09/10 01:17:59;;;;;;;10.57;9.67;;;22.10;99.90;;;;;;4994975;28;20474;-71
2023/09/10 01:20:53;;;;;;;10.13;8.73;;;22.20;99.90;;;;;;4995483;28;20408;-71
2023/09/10 01:23:36;;;;;;;10.43;9.43;;;22.20;99.90;;;;;;4976173;28;20758;-73
2023/09/10 01:26:02;;;;;;;10.00;9.00;;;22.20;99.90;;;;;;4975959;28;20385;-71
2023/09/10 01:28:27;;;;;;;10.63;9.53;;;22.10;99.90;;;;;;4975946;28;20401;-71
2023/09/10 01:30:53;;;;;;;9.70;8.67;;;22.10;99.90;;;;;;4977945;28;20197;-72
2023/09/10 01:33:35;;;;;;;11.50;9.20;;;22.00;99.90;;;;;;4995099;28;20180;-71
2023/09/10 01:36:05;;;;;;;12.33;9.77;;;22.00;99.90;;;;;;4995640;28;20157;-71
2023/09/10 01:38:57;;;;;;;9.87;8.90;;;22.00;99.90;;;;;;4995791;28;20439;-72
2023/09/10 01:41:25;;;;;;;11.17;10.17;;;22.10;99.90;;;;;;4996039;28;20419;-71
2023/09/10 01:43:52;;;;;;;9.50;8.50;;;22.10;99.90;;;;;;4995764;28;20400;-72
2023/09/10 01:46:19;;;;;;;12.23;10.10;;;22.10;99.90;;;;;;4995152;28;20836;-72
2023/09/10 01:48:44;;;;;;;11.00;10.00;;;22.10;99.90;;;;;;4994355;28;20506;-72
2023/09/10 01:51:10;;;;;;;9.03;8.30;;;22.00;99.90;;;;;;4993194;28;20432;-71
2023/09/10 01:53:35;;;;;;;10.13;9.23;;;22.00;99.90;;;;;;4994778;28;20264;-71
2023/09/10 01:56:01;;;;;;;10.30;9.30;;;21.90;99.90;;;;;;4994528;28;20179;-71
2023/09/10 01:58:27;;;;;;;9.87;8.87;;;21.90;99.90;;;;;;4994715;28;20204;-70
2023/09/10 02:00:52;;;;;;;9.33;8.53;;;21.90;99.90;;;;;;4994384;28;20212;-72
2023/09/10 02:03:18;;;;;;;10.30;9.20;;;21.80;99.90;;;;;;4994150;28;20244;-72
2023/09/10 02:05:43;;;;;;;9.80;8.77;;;21.70;99.90;;;;;;4993857;28;20592;-72
2023/09/10 02:08:09;;;;;;;11.50;10.40;;;21.60;99.90;;;;;;4995041;28;20662;-71
2023/09/10 02:10:35;;;;;;;12.27;10.33;;;21.40;99.90;;;;;;4994670;28;20188;-72
2023/09/10 02:13:00;;;;;;;10.93;9.03;;;21.30;99.90;;;;;;4994003;28;20176;-72
2023/09/10 02:15:26;;;;;;;10.90;9.80;;;21.50;99.90;;;;;;4994346;28;20206;-72
2023/09/10 02:17:55;;;;;;;9.33;8.63;;;21.60;99.90;;;;;;4994330;28;20250;-71
2023/09/10 02:20:21;;;;;;;12.27;9.63;;;21.60;99.90;;;;;;4993712;28;20185;-71
2023/09/10 02:22:47;;;;;;;10.30;8.80;;;21.50;99.90;;;;;;4993552;28;20407;-72
2023/09/10 02:25:13;;;;;;;10.60;9.50;;;21.30;99.90;;;;;;4994653;28;20168;-72
2023/09/10 02:27:38;;;;;;;11.73;8.43;;;21.40;99.90;;;;;;4994142;28;20193;-72
2023/09/10 02:30:04;;;;;;;9.60;8.70;;;21.50;99.90;;;;;;4994274;28;20675;-72
2023/09/10 02:32:32;;;;;;;9.30;8.50;;;21.50;99.90;;;;;;4994059;28;20235;-72
2023/09/10 02:34:57;;;;;;;9.83;8.90;;;21.50;99.90;;;;;;4997351;28;20427;-72
2023/09/10 02:37:23;;;;;;;11.10;8.47;;;21.50;99.90;;;;;;5012373;28;20451;-71
2023/09/10 02:39:48;;;;;;;10.97;9.17;;;21.50;99.90;;;;;;5012594;28;20173;-72
2023/09/10 02:42:14;;;;;;;10.03;9.00;;;21.40;99.90;;;;;;5012030;28;20192;-72
2023/09/10 02:44:39;;;;;;;10.87;8.57;;;21.30;99.90;;;;;;5009033;28;20173;-71
2023/09/10 02:47:05;;;;;;;12.97;10.00;;;21.30;99.90;;;;;;5010946;28;20180;-72
2023/09/10 02:49:32;;;;;;;9.27;8.37;;;21.30;99.90;;;;;;5010994;28;20184;-72
2023/09/10 02:51:57;;;;;;;12.90;9.07;;;21.30;99.90;;;;;;5010441;28;20280;-72
2023/09/10 02:54:23;;;;;;;9.03;8.30;;;21.20;99.90;;;;;;5011588;28;20416;-72
2023/09/10 02:56:50;;;;;;;9.70;8.73;;;21.30;99.90;;;;;;5012237;28;20204;-72
2023/09/10 02:59:25;;;;;;;8.80;7.90;;;21.30;99.90;;;;;;5006889;28;20175;-72
2023/09/10 03:01:52;;;;;;;10.77;9.70;;;21.30;99.90;;;;;;4993392;28;20510;-72
2023/09/10 03:04:18;;;;;;;9.63;8.27;;;21.20;99.90;;;;;;4993369;28;20404;-70
2023/09/10 03:06:48;;;;;;;14.13;8.93;;;21.00;99.90;;;;;;4992096;28;20917;-72
2023/09/10 03:09:14;;;;;;;10.40;9.40;;;21.00;99.90;;;;;;4993607;28;20420;-71
2023/09/10 03:11:41;;;;;;;11.17;10.07;;;20.90;99.90;;;;;;4993393;28;20432;-72
2023/09/10 03:14:08;;;;;;;9.50;8.63;;;21.00;99.90;;;;;;4993408;28;20435;-72
2023/09/10 03:16:34;;;;;;;9.77;8.53;;;21.10;99.90;;;;;;4993380;28;20396;-72
2023/09/10 03:19:00;;;;;;;10.10;9.20;;;21.10;99.90;;;;;;4992709;28;20900;-72
2023/09/10 03:21:26;;;;;;;10.80;9.90;;;21.10;99.90;;;;;;4992371;28;20690;-71
2023/09/10 03:23:52;;;;;;;10.37;9.37;;;21.10;99.90;;;;;;4993590;28;20169;-71
2023/09/10 03:26:18;;;;;;;9.40;8.50;;;21.00;99.90;;;;;;4993242;28;20399;-72
2023/09/10 03:28:44;;;;;;;10.10;9.10;;;21.00;99.90;;;;;;4993753;28;20514;-72
2023/09/10 03:31:09;;;;;;;10.63;9.60;;;20.90;99.90;;;;;;4993159;28;20287;-71
2023/09/10 03:33:35;;;;;;;10.97;10.07;;;20.90;99.90;;;;;;4993007;28;20177;-71
2023/09/10 03:36:01;;;;;;;10.63;9.63;;;20.80;99.90;;;;;;4992679;28;20251;-71
2023/09/10 03:38:26;;;;;;;11.63;10.60;;;20.80;99.90;;;;;;4992750;28;20199;-71
2023/09/10 03:40:52;;;;;;;11.03;10.00;;;20.70;99.90;;;;;;4993149;28;20255;-71
2023/09/10 03:43:18;;;;;;;10.57;9.57;;;20.70;99.90;;;;;;4993191;28;20169;-71
2023/09/10 03:45:43;;;;;;;11.27;10.17;;;20.60;99.90;;;;;;4992903;28;20169;-71
2023/09/10 03:48:09;;;;;;;11.33;10.23;;;20.70;99.90;;;;;;4993341;28;20161;-71
2023/09/10 03:50:35;;;;;;;9.90;8.97;;;20.70;99.90;;;;;;4992621;28;20614;-72
2023/09/10 03:53:00;;;;;;;12.87;9.70;;;20.70;99.90;;;;;;4992927;28;20192;-71
2023/09/10 03:55:26;;;;;;;11.40;10.20;;;20.70;99.90;;;;;;4994671;28;20173;-72
2023/09/10 03:57:52;;;;;;;11.97;10.40;;;20.60;99.90;;;;;;4996886;28;20380;-72
2023/09/10 04:00:19;;;;;;;10.77;9.63;;;20.60;99.90;;;;;;4997158;28;20191;-67
2023/09/10 04:02:44;;;;;;;10.80;9.80;;;20.60;99.90;;;;;;4996547;28;20181;-67
2023/09/10 04:05:11;;;;;;;11.67;10.50;;;20.50;99.90;;;;;;4996485;28;20450;-67
2023/09/10 04:07:37;;;;;;;12.27;11.17;;;20.50;99.90;;;;;;4997154;28;20412;-67
2023/09/10 04:10:03;;;;;;;14.50;10.00;;;20.40;99.90;;;;;;4996550;28;20404;-67
2023/09/10 04:12:28;;;;;;;11.07;9.87;;;20.30;99.90;;;;;;4996397;28;20219;-67
2023/09/10 04:14:54;;;;;;;12.40;11.07;;;20.30;99.90;;;;;;4996512;28;20165;-67
2023/09/10 04:17:19;;;;;;;14.13;11.80;;;20.30;99.90;;;;;;4996366;28;20674;-66
2023/09/10 04:19:45;;;;;;;13.13;11.40;;;20.30;99.90;;;;;;4995680;28;20227;-66
2023/09/10 04:22:10;;;;;;;11.87;10.67;;;20.30;99.90;;;;;;4995979;28;20197;-66
2023/09/10 04:24:36;;;;;;;11.33;10.13;;;20.30;99.90;;;;;;4996484;28;20211;-66
2023/09/10 04:27:02;;;;;;;12.00;10.80;;;20.30;99.90;;;;;;4996044;28;20300;-65
2023/09/10 04:29:28;;;;;;;11.27;9.20;;;20.40;99.90;;;;;;4996048;28;20192;-67
2023/09/10 04:31:53;;;;;;;13.73;11.33;;;20.40;99.90;;;;;;4995871;28;20887;-67
2023/09/10 04:34:19;;;;;;;12.03;9.70;;;20.40;99.90;;;;;;4995983;28;20169;-66
2023/09/10 04:36:46;;;;;;;13.47;11.50;;;20.40;99.90;;;;;;4995949;28;20206;-66
2023/09/10 04:39:11;;;;;;;11.30;10.10;;;20.50;99.90;;;;;;4996255;28;20176;-66
2023/09/10 04:41:37;;;;;;;11.37;10.27;;;20.50;99.90;;;;;;4995621;28;20507;-66
2023/09/10 04:44:03;;;;;;;11.83;10.80;;;20.50;99.90;;;;;;4995827;28;20665;-65
2023/09/10 04:46:29;;;;;;;11.60;10.50;;;20.50;99.90;;;;;;4995950;28;20169;-66
2023/09/10 04:48:57;;;;;;;11.97;10.77;;;20.40;99.90;;;;;;4995750;28;20750;-67
2023/09/10 04:51:23;;;;;;;11.87;9.63;;;20.40;99.90;;;;;;4996013;28;20188;-67
2023/09/10 04:53:48;;;;;;;12.07;10.93;;;20.40;99.90;;;;;;4996217;28;20502;-67
2023/09/10 04:56:14;;;;;;;11.83;10.70;;;20.40;99.90;;;;;;4995537;28;20177;-66
2023/09/10 04:58:39;;;;;;;11.27;10.20;;;20.20;99.90;;;;;;4996289;28;20196;-66
2023/09/10 05:01:05;;;;;;;12.53;11.10;;;20.20;99.90;;;;;;4996148;28;20580;-68
2023/09/10 05:03:31;;;;;;;12.17;10.87;;;20.30;99.90;;;;;;4995977;28;20204;-67
2023/09/10 05:06:01;;;;;;;12.77;11.50;;;20.20;99.90;;;;;;4995261;28;20362;-68
2023/09/10 05:08:27;;;;;;;11.70;10.23;;;20.20;99.90;;;;;;4995352;28;20408;-68
2023/09/10 05:10:54;;;;;;;15.57;10.40;;;20.20;99.90;;;;;;4996004;28;20432;-68
2023/09/10 05:13:19;;;;;;;12.77;11.60;;;20.30;99.90;;;;;;4995334;28;20503;-67
2023/09/10 05:15:48;;;;;;;13.67;11.97;;;20.30;99.90;;;;;;5024271;23;20581;-70
2023/09/10 05:18:15;;;;;;;12.07;11.03;;;20.30;99.90;;;;;;5013291;28;20250;-69
2023/09/10 05:20:41;;;;;;;11.10;10.00;;;20.40;99.90;;;;;;5012921;28;20477;-69
2023/09/10 05:23:06;;;;;;;13.63;11.60;;;20.50;99.90;;;;;;5001879;28;20412;-69
2023/09/10 05:25:36;;;;;;;12.63;11.43;;;20.50;99.90;;;;;;4985978;28;20193;-70
2023/09/10 05:28:03;;;;;;;11.57;10.40;;;20.60;99.90;;;;;;4974033;28;20232;-69
2023/09/10 05:30:29;;;;;;;12.13;11.13;;;20.60;99.90;;;;;;4974097;28;20795;-69
2023/09/10 05:32:55;;;;;;;12.83;11.60;;;20.60;99.90;;;;;;5004067;28;20419;-70
2023/09/10 05:35:21;;;;;;;12.33;11.30;;;20.60;99.90;;;;;;5011186;28;20199;-69
2023/09/10 05:37:46;;;;;;;12.47;11.17;;;20.60;99.90;;;;;;5012458;28;20451;-70
2023/09/10 05:40:12;;;;;;;12.53;11.00;;;20.50;99.90;;;;;;5012968;28;20191;-69
2023/09/10 05:42:37;;;;;;;11.67;10.57;;;20.50;99.90;;;;;;4999805;28;20227;-69
2023/09/10 05:45:03;;;;;;;13.43;11.70;;;20.50;99.90;;;;;;5006260;28;20172;-70
2023/09/10 05:47:30;;;;;;;11.37;10.33;;;20.50;99.90;;;;;;5012120;28;20299;-70
2023/09/10 05:49:55;;;;;;;13.00;11.67;;;20.60;99.90;;;;;;4975238;28;20602;-70
2023/09/10 05:52:21;;;;;;;11.10;10.03;;;20.70;99.90;;;;;;4994068;28;20172;-69
2023/09/10 05:54:46;;;;;;;14.20;10.97;;;20.80;99.90;;;;;;5012368;28;20172;-69
2023/09/10 05:57:12;;;;;;;11.90;10.70;;;20.70;99.90;;;;;;5012141;28;20231;-70
2023/09/10 05:59:38;;;;;;;12.67;11.50;;;20.70;99.90;;;;;;5012259;28;20657;-68
2023/09/10 06:02:03;;;;;;;11.93;10.87;;;20.70;99.90;;;;;;5004148;28;20177;-69
2023/09/10 06:04:29;;;;;;;11.87;10.77;;;20.80;99.90;;;;;;4992061;28;20250;-70
2023/09/10 06:06:54;;;;;;;13.47;11.80;;;20.90;99.90;;;;;;4992419;28;20216;-70
2023/09/10 06:09:20;;;;;;;15.40;10.93;;;21.00;99.90;;;;;;4992648;28;20254;-70
2023/09/10 06:11:45;;;;;;;13.37;12.03;;;21.10;99.90;;;;;;4997887;28;20179;-71
2023/09/10 06:14:11;;;;;;;13.33;12.00;;;21.10;99.90;;;;;;5012403;28;20245;-70
2023/09/10 06:16:36;;;;;;;14.23;12.83;;;21.20;99.90;;;;;;5008561;28;20263;-70
2023/09/10 06:19:02;;;;;;;11.83;10.73;;;21.20;99.90;;;;;;4989240;28;20185;-70
2023/09/10 06:21:28;;;;;;;12.30;11.00;;;21.30;99.90;;;;;;4977598;28;20168;-69
2023/09/10 06:23:54;;;;;;;11.07;10.03;;;21.40;99.90;;;;;;4972929;28;20652;-70
2023/09/10 06:26:20;;;;;;;13.37;10.43;;;21.50;99.90;;;;;;4973193;28;20283;-70
2023/09/10 06:28:46;;;;;;;11.40;10.30;;;21.50;99.90;;;;;;4972858;28;20169;-70
2023/09/10 06:31:11;;;;;;;12.30;11.10;;;21.60;99.90;;;;;;4973182;28;20413;-69
2023/09/10 06:33:37;;;;;;;12.03;10.97;;;21.70;99.90;;;;;;5011111;28;20176;-70
2023/09/10 06:36:02;;;;;;;12.20;11.10;;;21.70;99.90;;;;;;5011571;28;20223;-69
2023/09/10 06:38:29;;;;;;;12.30;11.17;;;21.80;99.90;;;;;;5011202;28;20188;-70
2023/09/10 06:40:54;;;;;;;10.60;9.00;;;21.90;99.90;;;;;;5011757;28;20234;-69
2023/09/10 06:43:20;;;;;;;10.93;9.87;;;22.00;99.90;;;;;;4993959;28;20844;-70
2023/09/10 06:45:45;;;;;;;11.17;10.10;;;22.10;99.90;;;;;;4992079;28;20281;-72
2023/09/10 06:48:11;;;;;;;13.60;10.80;;;22.20;99.90;;;;;;4991687;28;20227;-70
2023/09/10 06:50:37;;;;;;;11.53;10.53;;;22.20;99.90;;;;;;4992223;28;20579;-71
2023/09/10 06:53:02;;;;;;;10.87;9.90;;;22.30;99.90;;;;;;4983330;28;20192;-70
2023/09/10 06:55:28;;;;;;;13.40;11.27;;;22.40;99.90;;;;;;4972783;28;20201;-69
2023/09/10 06:57:55;;;;;;;11.87;10.77;;;22.50;99.90;;;;;;4972228;28;20197;-70
2023/09/10 07:00:20;;;;;;;12.13;11.00;;;22.60;99.90;;;;;;4972207;28;20208;-70
2023/09/10 07:02:46;;;;;;;12.83;10.03;;;22.70;99.90;;;;;;4997323;28;20441;-69
2023/09/10 07:05:11;;;;;;;11.60;10.63;;;22.80;99.90;;;;;;5010196;28;20549;-69
2023/09/10 07:07:37;;;;;;;10.80;9.77;;;23.00;99.90;;;;;;5011246;28;20176;-70
2023/09/10 07:10:03;;;;;;;11.57;10.37;;;23.00;99.90;;;;;;5011394;28;20515;-70
2023/09/10 07:12:28;;;;;;;12.13;11.00;;;23.20;99.90;;;;;;5001017;28;20659;-69
2023/09/10 07:14:54;;;;;;;12.47;11.17;;;23.00;99.90;;;;;;4991562;28;20204;-69
2023/09/10 07:17:19;;;;;;;13.77;10.27;;;22.80;99.90;;;;;;4991732;28;20196;-69
2023/09/10 07:19:45;;;;;;;12.53;10.17;;;23.00;99.90;;;;;;4991386;28;20175;-69
2023/09/10 07:22:10;;;;;;;12.93;11.73;;;23.10;99.90;;;;;;4987447;28;20252;-69
2023/09/10 07:24:36;;;;;;;13.20;11.90;;;23.10;99.90;;;;;;4972228;28;20206;-69
2023/09/10 07:27:02;;;;;;;13.50;12.10;;;23.20;99.90;;;;;;4970840;28;20212;-71
2023/09/10 07:29:28;;;;;;;12.43;11.33;;;23.30;99.90;;;;;;4973956;28;20232;-69
2023/09/10 07:31:54;;;;;;;14.40;13.10;;;23.00;99.90;;;;;;4986581;28;20897;-68
2023/09/10 07:34:20;;;;;;;14.73;13.30;;;22.70;99.90;;;;;;5014860;28;20583;-69
2023/09/10 07:36:46;;;;;;;15.60;14.10;;;22.80;99.90;;;;;;5014613;28;20459;-70
2023/09/10 07:39:12;;;;;;;15.73;13.40;;;22.90;99.90;;;;;;5015487;28;20449;-70
2023/09/10 07:41:38;;;;;;;16.00;14.40;;;23.20;99.90;;;;;;5012047;28;20227;-70
2023/09/10 07:44:04;;;;;;;16.77;15.03;;;23.20;99.90;;;;;;5006654;28;20407;-69
2023/09/10 07:46:30;;;;;;;14.80;13.30;;;22.90;99.90;;;;;;5015015;28;20216;-70
2023/09/10 07:48:55;;;;;;;16.30;14.60;;;22.80;99.90;;;;;;5013283;28;20176;-70
2023/09/10 07:51:21;;;;;;;14.27;12.87;;;22.80;99.90;;;;;;5014251;28;20410;-70
2023/09/10 07:53:47;;;;;;;15.10;13.63;;;23.30;99.90;;;;;;4977234;28;20181;-70
2023/09/10 07:56:12;;;;;;;16.33;13.70;;;23.40;99.90;;;;;;4975586;28;20271;-70
2023/09/10 07:58:38;;;;;;;19.87;13.00;;;23.40;99.90;;;;;;4975456;28;20209;-70
2023/09/10 08:01:04;;;;;;;15.10;13.60;;;23.30;99.90;;;;;;4975813;28;20698;-70
2023/09/10 08:03:29;;;;;;;15.70;14.30;;;23.30;99.90;;;;;;5010453;28;20180;-70
2023/09/10 08:05:55;;;;;;;15.33;13.93;;;23.30;99.90;;;;;;5014542;28;20192;-70
2023/09/10 08:08:21;;;;;;;14.33;12.97;;;23.40;99.90;;;;;;5014277;28;20617;-70
2023/09/10 08:10:46;;;;;;;14.07;12.47;;;23.60;99.90;;;;;;5015543;28;20178;-69
2023/09/10 08:13:12;;;;;;;13.43;12.30;;;24.00;99.90;;;;;;4999383;28;20620;-70
2023/09/10 08:15:39;;;;;;;14.10;12.70;;;24.20;99.90;;;;;;4994655;28;20213;-70
2023/09/10 08:18:10;;;;;;;12.73;11.53;;;24.30;99.90;;;;;;4994241;28;20811;-70
2023/09/10 08:20:36;;;;;;;12.77;11.67;;;24.50;99.90;;;;;;4995015;28;20388;-69
2023/09/10 08:23:03;;;;;;;14.20;12.83;;;24.50;99.90;;;;;;4984233;28;20475;-70
2023/09/10 08:25:28;;;;;;;11.63;10.47;;;24.30;99.90;;;;;;4989330;28;20431;-69
2023/09/10 08:27:54;;;;;;;13.00;11.63;;;24.60;99.90;;;;;;4994668;28;20412;-69
2023/09/10 08:30:19;;;;;;;12.07;10.90;;;24.60;99.90;;;;;;4994855;28;20554;-68
2023/09/10 08:32:47;;;;;;;11.03;10.13;;;24.30;99.90;;;;;;5006064;28;20298;-70
2023/09/10 08:35:13;;;;;;;12.90;11.53;;;24.30;99.90;;;;;;5013837;28;20188;-69
2023/09/10 08:37:39;;;;;;;12.83;11.43;;;24.20;99.90;;;;;;5013901;28;20458;-70
2023/09/10 08:40:08;;;;;;;11.83;10.77;;;24.40;99.90;;;;;;5013878;28;20175;-70
2023/09/10 08:42:56;;;;;;;12.37;11.00;;;24.60;99.90;;;;;;5003992;28;20301;-70
2023/09/10 08:45:23;;;;;;;10.70;9.80;;;24.70;99.90;;;;;;4994267;28;20621;-70
2023/09/10 08:47:50;;;;;;;11.63;10.53;;;24.70;99.90;;;;;;4994810;28;20427;-70
2023/09/10 08:50:16;;;;;;;11.53;10.33;;;24.90;99.90;;;;;;4980354;28;20519;-69
2023/09/10 08:52:43;;;;;;;10.47;9.47;;;25.20;99.90;;;;;;4995730;28;20500;-69
2023/09/10 08:55:13;;;;;;;10.70;9.80;;;25.40;99.90;;;;;;5013550;28;20431;-68
2023/09/10 08:57:41;;;;;;;12.30;10.37;;;25.30;99.90;;;;;;4993127;28;20447;-70
2023/09/10 09:00:15;;;;;;;10.97;10.03;;;25.30;99.90;;;;;;4994130;28;20910;-70
2023/09/10 09:02:42;;;;;;;11.50;10.40;;;25.40;99.90;;;;;;5004349;28;20498;-68
2023/09/10 09:05:08;;;;;;;10.33;9.30;;;25.70;99.90;;;;;;5012807;28;20409;-69
2023/09/10 09:07:42;;;;;;;11.13;10.03;;;25.80;99.90;;;;;;5011885;28;20415;-69
2023/09/10 09:10:11;;;;;;;9.70;8.83;;;25.90;99.90;;;;;;5013313;28;20388;-69
2023/09/10 09:12:38;;;;;;;10.63;9.50;;;25.80;99.90;;;;;;5003814;28;20412;-69
2023/09/10 09:15:06;;;;;;;10.50;9.50;;;25.90;99.90;;;;;;4993415;28;20940;-69
2023/09/10 09:17:32;;;;;;;10.97;8.70;;;26.00;99.90;;;;;;4993436;28;20459;-70
2023/09/10 09:20:02;;;;;;;9.80;8.83;;;26.20;99.90;;;;;;4983029;28;20775;-69
2023/09/10 09:22:31;;;;;;;9.87;8.80;;;26.20;99.90;;;;;;4990535;28;20819;-69
2023/09/10 09:24:57;;;;;;;10.03;8.67;;;26.10;99.90;;;;;;5013345;28;20411;-69
2023/09/10 09:27:25;;;;;;;9.63;8.60;;;26.20;99.90;;;;;;5012986;28;20417;-69
2023/09/10 09:29:51;;;;;;;9.83;8.93;;;26.40;99.90;;;;;;5012995;28;20180;-69
2023/09/10 09:32:17;;;;;;;10.10;9.07;;;26.50;99.90;;;;;;5006398;28;20455;-68
2023/09/10 09:34:43;;;;;;;9.83;9.00;;;26.70;99.90;;;;;;4992756;28;20458;-69
2023/09/10 09:37:08;;;;;;;11.47;10.20;;;26.70;99.90;;;;;;4993281;28;20283;-68
2023/09/10 09:39:34;;;;;;;17.60;10.63;;;26.90;99.90;;;;;;4993267;28;20198;-69
2023/09/10 09:42:00;;;;;;;10.03;9.00;;;26.90;99.90;;;;;;4997365;28;20255;-69
2023/09/10 09:44:26;;;;;;;11.00;9.73;;;27.00;99.90;;;;;;4997879;28;20845;-69
2023/09/10 09:46:56;;;;;;;9.77;8.87;;;27.00;99.90;;;;;;4991726;28;20517;-72
2023/09/10 09:49:21;;;;;;;10.67;9.57;;;27.30;99.90;;;;;;4988289;28;20283;-72
2023/09/10 09:51:48;;;;;;;9.57;8.57;;;27.50;99.90;;;;;;4978130;28;20482;-70
2023/09/10 09:54:13;;;;;;;10.43;8.83;;;27.70;99.90;;;;;;5011716;28;20195;-71
2023/09/10 09:56:43;;;;;;;9.47;8.60;;;27.70;99.90;;;;;;5012562;28;20460;-70
2023/09/10 09:59:10;;;;;;;10.13;8.40;;;27.70;99.90;;;;;;5012436;28;20219;-70
2023/09/10 10:01:38;;;;;;;8.70;7.90;;;27.50;99.90;;;;;;5011754;28;20441;-70
2023/09/10 10:04:04;;;;;;;8.97;7.93;;;27.40;99.90;;;;;;4992502;28;21005;-70
2023/09/10 10:06:31;;;;;;;8.43;7.63;;;27.60;99.90;;;;;;4992512;28;20490;-70
2023/09/10 10:08:57;;;;;;;7.87;7.20;;;27.60;99.90;;;;;;4992993;28;20399;-70
2023/09/10 10:11:32;;;;;;;10.17;7.83;;;27.90;99.90;;;;;;4992796;28;20414;-70
2023/09/10 10:14:05;;;;;;;11.53;8.50;;;27.80;99.90;;;;;;5069509;27;20573;-70
2023/09/10 10:16:31;;;;;;;8.80;7.93;;;28.00;99.90;;;;;;5068181;28;20836;-70
2023/09/10 10:18:57;;;;;;;9.37;8.47;;;28.10;99.90;;;;;;5066454;28;20431;-71
2023/09/10 10:21:23;;;;;;;8.90;8.13;;;28.50;99.90;;;;;;5048484;28;20626;-70
2023/09/10 10:23:56;;;;;;;9.43;8.63;;;28.50;99.70;;;;;;5067180;28;20652;-71
2023/09/10 10:26:22;;;;;;;9.77;8.87;;;28.50;99.70;;;;;;5068710;28;20452;-69
2023/09/10 10:28:49;;;;;;;9.27;8.33;;;28.60;99.90;;;;;;5068224;28;20439;-69
2023/09/10 10:31:15;;;;;;;8.60;7.80;;;28.80;99.90;;;;;;5068451;28;20452;-70
2023/09/10 10:34:01;;;;;;;9.50;7.90;;;29.10;99.60;;;;;;5067576;28;21005;-70
2023/09/10 10:36:48;;;;;;;12.47;9.67;;;29.10;98.70;;;;;;5068276;28;20420;-70
2023/09/10 10:39:16;;;;;;;10.00;7.80;;;28.90;98.50;;;;;;5068114;28;20381;-70
2023/09/10 10:41:53;;;;;;;9.63;8.37;;;29.00;98.50;;;;;;5068470;28;20878;-70
2023/09/10 10:44:37;;;;;;;9.50;8.43;;;28.90;98.40;;;;;;5067879;28;20403;-70
2023/09/10 10:47:15;;;;;;;7.60;6.90;;;29.50;98.30;;;;;;5067760;28;20412;-70
2023/09/10 10:49:52;;;;;;;8.90;8.10;;;30.20;97.50;;;;;;5059633;28;20413;-70
2023/09/10 10:52:24;;;;;;;8.70;7.90;;;31.10;95.50;;;;;;5053243;28;20514;-70
2023/09/10 10:54:51;;;;;;;13.50;7.37;;;32.10;93.90;;;;;;5060434;28;20436;-70
2023/09/10 10:57:20;;;;;;;8.17;7.47;;;32.20;93.60;;;;;;5047725;28;20416;-70
2023/09/10 10:59:46;;;;;;;7.40;6.70;;;34.30;90.90;;;;;;5047452;28;20488;-70
2023/09/10 11:02:22;;;;;;;7.90;6.40;;;35.70;86.40;;;;;;5064406;28;20883;-71
2023/09/10 11:05:03;;;;;;;8.23;7.43;;;34.70;84.30;;;;;;5066544;28;20172;-69
2023/09/10 11:07:29;;;;;;;7.80;7.10;;;35.00;80.50;;;;;;5067573;28;20768;-70
2023/09/10 11:10:27;;;;;;;7.90;7.17;;;34.80;79.00;;;;;;5067383;28;20867;-70
2023/09/10 11:13:08;;;;;;;7.50;6.80;;;35.40;79.20;;;;;;5046538;28;20465;-70
2023/09/10 11:15:34;;;;;;;8.00;7.30;;;36.10;72.90;;;;;;5071178;23;20947;-73
2023/09/10 11:18:36;;;;;;;7.20;6.60;;;35.80;75.20;;;;;;5029216;28;20490;-73
2023/09/10 11:21:16;;;;;;;7.43;6.73;;;36.60;74.20;;;;;;5044059;28;20254;-73
2023/09/10 11:23:56;;;;;;;7.23;6.50;;;37.30;68.80;;;;;;5025164;28;20401;-73
2023/09/10 11:26:22;;;;;;;6.07;5.57;;;39.30;66.80;;;;;;5016276;28;20434;-73
2023/09/10 11:28:55;;;;;;;7.37;6.70;;;39.30;62.70;;;;;;5015991;28;20399;-73
2023/09/10 11:31:39;;;;;;;7.83;7.00;;;38.50;60.40;;;;;;5016197;28;20176;-72
2023/09/10 11:34:17;;;;;;;7.60;6.80;;;38.10;61.80;;;;;;5015970;28;20417;-71
2023/09/10 11:37:15;;;;;;;6.97;6.27;;;38.60;60.20;;;;;;5015718;28;20813;-71
2023/09/10 11:39:42;;;;;;;10.10;6.73;;;38.80;59.30;;;;;;4982672;28;20407;-72
2023/09/10 11:42:08;;;;;;;7.97;6.97;;;39.60;57.60;;;;;;5015411;28;20461;-70
2023/09/10 11:44:35;;;;;;;7.17;6.47;;;37.90;59.50;;;;;;5015332;28;20775;-71
2023/09/10 11:47:00;;;;;;;9.13;6.83;;;37.70;63.00;;;;;;5013438;28;20809;-72
2023/09/10 11:49:26;;;;;;;9.37;6.80;;;39.30;58.40;;;;;;5015515;28;20409;-73
2023/09/10 11:51:55;;;;;;;7.30;6.70;;;40.00;56.90;;;;;;5015036;28;20694;-72
2023/09/10 11:54:21;;;;;;;9.90;6.90;;;40.00;56.10;;;;;;5014925;28;20163;-71
2023/09/10 11:56:48;;;;;;;7.17;6.37;;;39.90;56.90;;;;;;5015044;28;20987;-71
2023/09/10 11:59:18;;;;;;;8.50;6.00;;;40.20;56.10;;;;;;5014012;28;20484;-72
2023/09/10 12:01:43;;;;;;;6.50;5.90;;;40.50;55.80;;;;;;5015082;28;20490;-73
2023/09/10 12:04:09;;;;;;;8.80;7.90;;;39.70;55.40;;;;;;5014486;28;20490;-73
2023/09/10 12:06:34;;;;;;;8.93;6.93;;;38.50;56.90;;;;;;5014664;28;20672;-74
2023/09/10 12:09:00;;;;;;;9.70;7.90;;;37.10;59.80;;;;;;5014852;28;20175;-72
2023/09/10 12:11:28;;;;;;;7.30;6.67;;;36.80;60.70;;;;;;5013396;28;20194;-73
2023/09/10 12:13:54;;;;;;;8.00;7.20;;;36.40;61.70;;;;;;5012997;28;20192;-71
2023/09/10 12:16:20;;;;;;;7.93;7.23;;;38.20;58.30;;;;;;5014280;28;20434;-70
2023/09/10 12:18:46;;;;;;;7.80;7.00;;;39.80;56.40;;;;;;5014389;28;20410;-71
2023/09/10 12:21:15;;;;;;;7.60;6.90;;;38.80;57.10;;;;;;5014802;28;20164;-71
2023/09/10 12:23:41;;;;;;;8.00;7.23;;;39.10;57.80;;;;;;5014224;28;20833;-71
2023/09/10 12:26:10;;;;;;;7.77;7.10;;;39.00;58.00;;;;;;5014231;28;20810;-71
2023/09/10 12:28:36;;;;;;;8.30;6.70;;;39.00;57.00;;;;;;5014008;28;20559;-71
2023/09/10 12:31:02;;;;;;;8.00;7.20;;;40.10;54.70;;;;;;5014638;28;20493;-71
2023/09/10 12:33:28;;;;;;;7.33;6.63;;;39.20;55.30;;;;;;5014004;28;20196;-71
2023/09/10 12:35:55;;;;;;;8.13;7.13;;;40.00;54.60;;;;;;5013241;28;20948;-71
2023/09/10 12:38:21;;;;;;;7.23;6.47;;;39.40;54.90;;;;;;5014306;28;20410;-71